createdAt,value
2023-07-15T00:01:33.294Z,100463.63
2023-07-15T00:04:00.275Z,100466.31
2023-07-15T00:06:28.286Z,100464.06
2023-07-15T00:08:56.925Z,100464.84
2023-07-15T00:11:44.395Z,100462.97
2023-07-15T00:14:22.912Z,100458.78
2023-07-15T00:16:53.508Z,100465.97
2023-07-15T00:19:20.862Z,100456.47
2023-07-15T00:21:49.230Z,100458.38
2023-07-15T00:24:16.524Z,100453.38
2023-07-15T00:26:43.671Z,100445.78
2023-07-15T00:29:10.529Z,100457.09
2023-07-15T00:31:38.084Z,100449.50
2023-07-15T00:34:06.311Z,100449.88
2023-07-15T00:36:34.539Z,100449.47
2023-07-15T00:39:01.639Z,100446.41
2023-07-15T00:41:31.751Z,100458.47
2023-07-15T00:44:02.161Z,100450.91
2023-07-15T00:46:39.788Z,100463.78
2023-07-15T00:49:36.312Z,100463.81
2023-07-15T00:52:15.530Z,100462.66
2023-07-15T00:54:52.346Z,100469.13
2023-07-15T00:57:19.836Z,100469.94
2023-07-15T00:59:49.213Z,100457.84
2023-07-15T01:02:17.089Z,100452.53
2023-07-15T01:04:44.167Z,100465.38
2023-07-15T01:07:11.050Z,100466.13
2023-07-15T01:09:38.014Z,100468.31
2023-07-15T01:12:06.214Z,100472.09
2023-07-15T01:14:33.186Z,100472.03
2023-07-15T01:17:00.115Z,100472.34
2023-07-15T01:19:28.568Z,100475.63
2023-07-15T01:21:56.782Z,100469.09
2023-07-15T01:24:27.363Z,100469.38
2023-07-15T01:27:03.994Z,100464.81
2023-07-15T01:29:30.866Z,100474.59
2023-07-15T01:31:57.835Z,100476.09
2023-07-15T01:34:24.728Z,100475.63
2023-07-15T01:36:52.412Z,100483.53
2023-07-15T01:39:19.427Z,100478.16
2023-07-15T01:41:46.304Z,100487.22
2023-07-15T01:44:14.125Z,100491.75
2023-07-15T01:46:41.466Z,100484.13
2023-07-15T01:49:08.890Z,100492.06
2023-07-15T01:51:39.049Z,100480.28
2023-07-15T01:54:06.216Z,100493.06
2023-07-15T01:56:33.344Z,100483.84
2023-07-15T01:59:00.384Z,100484.56
2023-07-15T02:01:27.866Z,100491.28
2023-07-15T02:03:55.448Z,100498.81
2023-07-15T02:06:23.419Z,100500.97
2023-07-15T02:08:50.538Z,100493.31
2023-07-15T02:11:17.487Z,100499.22
2023-07-15T02:13:44.408Z,100492.34
2023-07-15T02:16:11.475Z,100497.88
2023-07-15T02:18:38.502Z,100492.94
2023-07-15T02:21:05.871Z,100495.94
2023-07-15T02:23:33.014Z,100495.09
2023-07-15T02:25:59.997Z,100490.84
2023-07-15T02:28:28.611Z,100495.72
2023-07-15T02:30:56.953Z,100501.72
2023-07-15T02:33:25.062Z,100512.97
2023-07-15T02:35:52.400Z,100493.63
2023-07-15T02:38:19.796Z,100511.31
2023-07-15T02:40:50.355Z,100520.69
2023-07-15T02:43:17.410Z,100505.88
2023-07-15T02:45:44.304Z,100516.38
2023-07-15T02:48:11.119Z,100518.50
2023-07-15T02:50:38.024Z,100516.91
2023-07-15T02:53:04.832Z,100526.31
2023-07-15T02:55:31.871Z,100521.28
2023-07-15T02:57:59.438Z,100516.69
2023-07-15T03:00:26.398Z,100512.06
2023-07-15T03:02:53.462Z,100516.53
2023-07-15T03:05:20.895Z,100517.97
2023-07-15T03:07:48.913Z,100514.13
2023-07-15T03:10:16.628Z,100514.13
2023-07-15T03:12:46.289Z,100509.97
2023-07-15T03:15:13.102Z,100514.06
2023-07-15T03:17:39.967Z,100519.25
2023-07-15T03:20:16.277Z,100515.44
2023-07-15T03:22:44.136Z,100514.59
2023-07-15T03:25:11.269Z,100516.03
2023-07-15T03:27:38.866Z,100517.47
2023-07-15T03:30:09.946Z,100518.13
2023-07-15T03:32:38.186Z,100518.47
2023-07-15T03:35:05.903Z,100515.00
2023-07-15T03:37:34.505Z,100511.94
2023-07-15T03:40:01.464Z,100513.34
2023-07-15T03:42:29.138Z,100514.81
2023-07-15T03:44:56.047Z,100518.56
2023-07-15T03:47:22.973Z,100506.13
2023-07-15T03:49:49.888Z,100508.00
2023-07-15T03:52:16.748Z,100514.81
2023-07-15T03:54:44.582Z,100518.22
2023-07-15T03:57:12.282Z,100520.09
2023-07-15T03:59:39.937Z,100512.94
2023-07-15T04:02:07.423Z,100512.16
2023-07-15T04:04:34.379Z,100516.34
2023-07-15T04:07:02.334Z,100519.06
2023-07-15T04:09:29.582Z,100514.56
2023-07-15T04:11:57.433Z,100518.72
2023-07-15T04:14:24.422Z,100525.56
2023-07-15T04:16:51.280Z,100522.91
2023-07-15T04:19:18.194Z,100524.44
2023-07-15T04:21:45.174Z,100522.66
2023-07-15T04:24:12.141Z,100526.25
2023-07-15T04:26:38.951Z,100524.56
2023-07-15T04:29:07.608Z,100522.47
2023-07-15T04:31:34.587Z,100525.28
2023-07-15T04:34:01.569Z,100525.81
2023-07-15T04:36:28.557Z,100525.19
2023-07-15T04:38:55.668Z,100526.13
2023-07-15T04:41:22.773Z,100524.72
2023-07-15T04:43:49.655Z,100523.72
2023-07-15T04:46:16.805Z,100535.31
2023-07-15T04:48:44.687Z,100530.44
2023-07-15T04:51:11.612Z,100522.06
2023-07-15T04:53:44.173Z,100525.00
2023-07-15T04:56:12.005Z,100526.53
2023-07-15T04:58:40.129Z,100530.31
2023-07-15T05:01:07.053Z,100527.28
2023-07-15T05:03:34.947Z,100532.59
2023-07-15T05:06:02.285Z,100541.03
2023-07-15T05:08:29.343Z,100543.31
2023-07-15T05:10:56.762Z,100538.44
2023-07-15T05:13:23.675Z,100543.81
2023-07-15T05:15:50.658Z,100546.59
2023-07-15T05:18:17.672Z,100544.44
2023-07-15T05:20:44.860Z,100544.97
2023-07-15T05:23:11.827Z,100545.53
2023-07-15T05:25:38.955Z,100539.50
2023-07-15T05:28:06.460Z,100539.09
2023-07-15T05:30:37.074Z,100545.63
2023-07-15T05:33:05.018Z,100550.53
2023-07-15T05:35:32.234Z,100552.66
2023-07-15T05:37:59.193Z,100549.50
2023-07-15T05:40:26.092Z,100548.88
2023-07-15T05:42:52.950Z,100546.03
2023-07-15T05:45:19.917Z,100541.28
2023-07-15T05:47:46.802Z,100545.97
2023-07-15T05:50:13.704Z,100551.50
2023-07-15T05:52:40.585Z,100548.91
2023-07-15T05:55:07.912Z,100555.13
2023-07-15T05:57:34.814Z,100563.63
2023-07-15T06:00:02.310Z,100567.44
2023-07-15T06:02:29.289Z,100565.50
2023-07-15T06:04:56.204Z,100564.06
2023-07-15T06:07:23.066Z,100565.19
2023-07-15T06:09:53.507Z,100567.00
2023-07-15T06:12:20.443Z,100573.81
2023-07-15T06:14:47.294Z,100574.94
2023-07-15T06:17:14.340Z,100566.47
2023-07-15T06:19:41.220Z,100575.56
2023-07-15T06:22:08.202Z,100562.75
2023-07-15T06:24:35.551Z,100568.84
2023-07-15T06:27:02.482Z,100570.50
2023-07-15T06:29:29.691Z,100564.03
2023-07-15T06:31:56.516Z,100557.94
2023-07-15T06:34:23.556Z,100565.13
2023-07-15T06:36:52.614Z,100565.16
2023-07-15T06:39:21.660Z,100562.16
2023-07-15T06:41:48.554Z,100567.19
2023-07-15T06:46:42.220Z,100572.22
2023-07-15T06:49:09.198Z,100574.53
2023-07-15T06:51:36.185Z,100573.03
2023-07-15T06:54:03.128Z,100553.25
2023-07-15T06:56:30.333Z,100554.78
2023-07-15T06:58:57.232Z,100554.00
2023-07-15T07:01:24.083Z,100552.84
2023-07-15T07:03:51.262Z,100560.09
2023-07-15T07:06:18.190Z,100563.91
2023-07-15T07:08:45.267Z,100562.00
2023-07-15T07:11:12.371Z,100566.91
2023-07-15T07:13:39.643Z,100576.44
2023-07-15T07:16:06.751Z,100565.66
2023-07-15T07:18:33.883Z,100568.28
2023-07-15T07:21:01.197Z,100568.16
2023-07-15T07:23:28.452Z,100576.53
2023-07-15T07:25:55.548Z,100566.97
2023-07-15T07:28:27.226Z,100577.25
2023-07-15T07:30:54.912Z,100577.59
2023-07-15T07:33:21.901Z,100577.13
2023-07-15T07:35:48.828Z,100579.38
2023-07-15T07:38:15.759Z,100576.59
2023-07-15T07:40:47.863Z,100575.66
2023-07-15T07:43:14.882Z,100576.72
2023-07-15T07:45:41.761Z,100586.91
2023-07-15T07:48:08.731Z,100584.38
2023-07-15T07:50:36.882Z,100602.44
2023-07-15T07:53:04.065Z,100602.00
2023-07-15T07:55:31.253Z,100614.00
2023-07-15T07:57:58.119Z,100605.72
2023-07-15T08:00:25.097Z,100612.34
2023-07-15T08:02:52.079Z,100598.72
2023-07-15T08:05:20.062Z,100599.25
2023-07-15T08:07:47.172Z,100597.00
2023-07-15T08:10:14.281Z,100603.34
2023-07-15T08:12:41.274Z,100600.47
2023-07-15T08:15:09.441Z,100606.31
2023-07-15T08:17:37.666Z,100604.28
2023-07-15T08:20:05.370Z,100610.22
2023-07-15T08:22:32.420Z,100603.69
2023-07-15T08:24:59.408Z,100592.81
2023-07-15T08:27:26.398Z,100593.31
2023-07-15T08:29:53.378Z,100597.53
2023-07-15T08:32:20.367Z,100597.41
2023-07-15T08:35:05.338Z,100602.84
2023-07-15T08:37:33.515Z,100607.50
2023-07-15T08:40:00.579Z,100602.97
2023-07-15T08:42:28.785Z,100606.22
2023-07-15T08:44:56.511Z,100594.72
2023-07-15T08:47:25.505Z,100602.72
2023-07-15T08:49:54.987Z,100608.19
2023-07-15T08:52:24.910Z,100599.22
2023-07-15T08:54:53.522Z,100589.66
2023-07-15T08:57:23.664Z,100610.06
2023-07-15T08:59:57.005Z,100613.28
2023-07-15T09:02:24.363Z,100616.13
2023-07-15T09:04:51.885Z,100615.06
2023-07-15T09:07:29.049Z,100617.41
2023-07-15T09:09:56.195Z,100638.06
2023-07-15T09:12:24.569Z,100639.31
2023-07-15T09:14:54.585Z,100631.78
2023-07-15T09:17:23.230Z,100636.31
2023-07-15T09:19:50.672Z,100633.00
2023-07-15T09:22:19.964Z,100635.41
2023-07-15T09:24:47.133Z,100639.81
2023-07-15T09:27:14.012Z,100630.41
2023-07-15T09:29:41.494Z,100632.66
2023-07-15T09:32:09.773Z,100631.81
2023-07-15T09:34:41.858Z,100635.69
2023-07-15T09:37:09.490Z,100641.59
2023-07-15T09:39:37.922Z,100642.56
2023-07-15T09:42:08.721Z,100640.81
2023-07-15T09:44:46.762Z,100637.94
2023-07-15T09:47:13.995Z,100642.38
2023-07-15T09:49:41.091Z,100639.09
2023-07-15T09:52:08.185Z,100637.84
2023-07-15T09:54:36.482Z,100631.41
2023-07-15T09:57:14.769Z,100627.69
2023-07-15T09:59:50.192Z,100635.69
2023-07-15T10:02:28.474Z,100635.03
2023-07-15T10:05:04.345Z,100646.28
2023-07-15T10:07:32.997Z,100653.78
2023-07-15T10:10:00.574Z,100654.66
2023-07-15T10:12:29.377Z,100661.19
2023-07-15T10:14:57.944Z,100653.75
2023-07-15T10:17:25.084Z,100642.97
2023-07-15T10:19:53.896Z,100647.22
2023-07-15T10:22:25.242Z,100653.44
2023-07-15T10:24:58.101Z,100656.78
2023-07-15T10:27:29.254Z,100653.13
2023-07-15T10:30:19.267Z,100650.88
2023-07-15T10:33:07.491Z,100638.47
2023-07-15T10:35:41.579Z,100636.94
2023-07-15T10:38:24.821Z,100627.44
2023-07-15T10:40:54.115Z,100634.53
2023-07-15T10:43:42.518Z,100626.81
2023-07-15T10:46:12.291Z,100617.97
2023-07-15T10:48:40.308Z,100613.50
2023-07-15T10:51:10.462Z,100608.50
2023-07-15T10:53:38.068Z,100594.59
2023-07-15T10:56:11.887Z,100602.81
2023-07-15T10:58:41.738Z,100608.72
2023-07-15T11:01:14.070Z,100604.00
2023-07-15T11:03:43.245Z,100599.19
2023-07-15T11:06:11.463Z,100604.66
2023-07-15T11:08:42.315Z,100600.59
2023-07-15T11:11:14.313Z,100597.50
2023-07-15T11:13:43.313Z,100602.72
2023-07-15T11:16:10.508Z,100594.63
2023-07-15T11:18:37.397Z,100592.63
2023-07-15T11:21:04.609Z,100597.66
2023-07-15T11:23:32.800Z,100610.09
2023-07-15T11:26:13.660Z,100606.34
2023-07-15T11:28:51.724Z,100598.41
2023-07-15T11:31:27.424Z,100594.97
2023-07-15T11:33:55.594Z,100597.13
2023-07-15T11:36:22.546Z,100593.16
2023-07-15T11:38:49.561Z,100586.88
2023-07-15T11:41:16.630Z,100584.97
2023-07-15T11:43:43.759Z,100588.19
2023-07-15T11:46:10.841Z,100585.28
2023-07-15T11:48:38.191Z,100586.25
2023-07-15T11:51:09.279Z,100567.09
2023-07-15T11:53:39.056Z,100572.41
2023-07-15T11:56:09.861Z,100570.06
2023-07-15T11:58:40.346Z,100576.13
2023-07-15T12:01:07.810Z,100577.28
2023-07-15T12:03:35.908Z,100574.16
2023-07-15T12:06:03.262Z,100572.06
2023-07-15T12:08:30.179Z,100557.06
2023-07-15T12:10:58.446Z,100563.56
2023-07-15T12:13:27.439Z,100558.84
2023-07-15T12:15:54.535Z,100556.09
2023-07-15T12:18:21.447Z,100546.59
2023-07-15T12:20:48.501Z,100541.44
2023-07-15T12:23:15.790Z,100543.56
2023-07-15T12:25:42.788Z,100544.97
2023-07-15T12:28:09.799Z,100548.03
2023-07-15T12:30:36.818Z,100547.41
2023-07-15T12:33:03.961Z,100543.09
2023-07-15T12:35:31.039Z,100547.09
2023-07-15T12:37:57.956Z,100550.03
2023-07-15T12:40:25.064Z,100548.06
2023-07-15T12:42:51.953Z,100549.91
2023-07-15T12:45:19.103Z,100537.25
2023-07-15T12:47:46.184Z,100544.72
2023-07-15T12:50:13.154Z,100534.72
2023-07-15T12:52:40.085Z,100535.03
2023-07-15T12:55:07.364Z,100544.44
2023-07-15T12:57:34.370Z,100545.66
2023-07-15T13:00:01.306Z,100530.38
2023-07-15T13:02:28.365Z,100529.91
2023-07-15T13:04:55.403Z,100542.16
2023-07-15T13:07:23.159Z,100533.34
2023-07-15T13:09:50.190Z,100543.09
2023-07-15T13:12:17.171Z,100535.50
2023-07-15T13:14:44.255Z,100538.53
2023-07-15T13:17:11.153Z,100536.06
2023-07-15T13:19:38.160Z,100532.59
2023-07-15T13:22:05.463Z,100525.81
2023-07-15T13:24:32.575Z,100535.44
2023-07-15T13:26:59.518Z,100529.25
2023-07-15T13:29:26.653Z,100537.38
2023-07-15T13:31:53.575Z,100518.75
2023-07-15T13:34:20.668Z,100522.41
2023-07-15T13:36:47.679Z,100508.63
2023-07-15T13:39:37.407Z,100513.47
2023-07-15T13:42:09.259Z,100515.72
2023-07-15T13:44:36.561Z,100511.19
2023-07-15T13:47:05.220Z,100494.50
2023-07-15T13:49:32.962Z,100495.41
2023-07-15T13:52:00.661Z,100490.97
2023-07-15T13:54:28.108Z,100491.44
2023-07-15T13:56:55.774Z,100490.59
2023-07-15T13:59:22.765Z,100486.97
2023-07-15T14:01:50.426Z,100478.66
2023-07-15T14:04:17.591Z,100477.69
2023-07-15T14:06:48.100Z,100470.34
2023-07-15T14:09:16.070Z,100472.06
2023-07-15T14:11:46.106Z,100470.03
2023-07-15T14:14:16.781Z,100467.03
2023-07-15T14:16:44.015Z,100468.56
2023-07-15T14:19:11.085Z,100449.88
2023-07-15T14:21:38.218Z,100448.09
2023-07-15T14:24:06.684Z,100457.53
2023-07-15T14:26:35.008Z,100463.31
2023-07-15T14:29:02.575Z,100428.41
2023-07-15T14:31:29.689Z,100431.56
2023-07-15T14:33:56.713Z,100424.16
2023-07-15T14:36:24.123Z,100432.63
2023-07-15T14:38:51.413Z,100432.13
2023-07-15T14:41:18.653Z,100429.00
2023-07-15T14:43:46.019Z,100425.59
2023-07-15T14:46:13.078Z,100430.00
2023-07-15T14:48:41.285Z,100425.38
2023-07-15T14:51:08.492Z,100437.53
2023-07-15T14:53:35.406Z,100440.69
2023-07-15T14:56:03.343Z,100427.72
2023-07-15T14:58:30.365Z,100421.81
2023-07-15T15:00:57.553Z,100413.09
2023-07-15T15:03:24.891Z,100413.34
2023-07-15T15:05:52.038Z,100410.06
2023-07-15T15:08:19.128Z,100403.66
2023-07-15T15:10:46.121Z,100404.53
2023-07-15T15:13:13.268Z,100406.97
2023-07-15T15:15:40.981Z,100412.88
2023-07-15T15:18:08.128Z,100415.00
2023-07-15T15:20:35.276Z,100413.50
2023-07-15T15:23:02.656Z,100429.53
2023-07-15T15:25:29.564Z,100437.53
2023-07-15T15:27:56.479Z,100451.38
2023-07-15T15:30:23.592Z,100472.03
2023-07-15T15:32:50.756Z,100543.88
2023-07-15T15:35:17.891Z,100558.16
2023-07-15T15:37:44.831Z,100574.66
2023-07-15T15:40:11.863Z,100581.50
2023-07-15T15:42:41.172Z,100594.97
2023-07-15T15:45:09.474Z,100600.81
2023-07-15T15:47:36.436Z,100596.25
2023-07-15T15:50:03.794Z,100591.28
2023-07-15T15:52:30.953Z,100576.81
2023-07-15T15:54:57.982Z,100586.72
2023-07-15T15:57:25.285Z,100596.25
2023-07-15T15:59:52.478Z,100600.88
2023-07-15T16:02:19.550Z,100592.81
2023-07-15T16:04:46.620Z,100591.31
2023-07-15T16:07:13.555Z,100590.22
2023-07-15T16:09:40.489Z,100587.56
2023-07-15T16:12:07.786Z,100576.91
2023-07-15T16:14:34.650Z,100589.09
2023-07-15T16:17:01.698Z,100587.56
2023-07-15T16:19:28.851Z,100582.22
2023-07-15T16:21:55.836Z,100600.16
2023-07-15T16:24:22.858Z,100599.00
2023-07-15T16:26:49.880Z,100609.25
2023-07-15T16:29:16.730Z,100606.63
2023-07-15T16:31:43.694Z,100604.34
2023-07-15T16:34:10.854Z,100613.50
2023-07-15T16:36:37.936Z,100608.91
2023-07-15T16:39:05.452Z,100613.50
2023-07-15T16:41:32.423Z,100607.78
2023-07-15T16:43:59.535Z,100615.03
2023-07-15T16:46:26.593Z,100622.63
2023-07-15T16:48:53.738Z,100622.66
2023-07-15T16:51:20.720Z,100626.41
2023-07-15T16:53:47.725Z,100634.78
2023-07-15T16:56:14.728Z,100626.00
2023-07-15T16:58:41.760Z,100626.78
2023-07-15T17:01:08.720Z,100622.97
2023-07-15T17:03:35.989Z,100628.31
2023-07-15T17:06:03.148Z,100622.97
2023-07-15T17:08:30.102Z,100621.09
2023-07-15T17:10:57.116Z,100629.50
2023-07-15T17:13:24.053Z,100646.28
2023-07-15T17:15:51.021Z,100633.31
2023-07-15T17:18:18.090Z,100636.75
2023-07-15T17:20:45.129Z,100633.72
2023-07-15T17:23:12.156Z,100632.50
2023-07-15T17:25:40.426Z,100622.59
2023-07-15T17:28:07.467Z,100621.81
2023-07-15T17:30:34.591Z,100627.16
2023-07-15T17:33:05.986Z,100630.19
2023-07-15T17:35:33.193Z,100623.28
2023-07-15T17:38:00.072Z,100627.47
2023-07-15T17:40:27.073Z,100632.81
2023-07-15T17:42:54.117Z,100614.91
2023-07-15T17:45:21.022Z,100606.91
2023-07-15T17:47:47.952Z,100611.09
2023-07-15T17:50:14.927Z,100621.75
2023-07-15T17:52:42.062Z,100626.72
2023-07-15T17:55:21.533Z,100624.03
2023-07-15T17:57:51.264Z,100639.59
2023-07-15T18:00:18.483Z,100630.78
2023-07-15T18:02:47.926Z,100630.00
2023-07-15T18:05:14.945Z,100630.66
2023-07-15T18:07:41.989Z,100643.16
2023-07-15T18:10:09.607Z,100635.84
2023-07-15T18:12:36.627Z,100633.50
2023-07-15T18:15:03.828Z,100636.91
2023-07-15T18:17:30.855Z,100641.88
2023-07-15T18:19:57.943Z,100654.00
2023-07-15T18:22:25.186Z,100642.59
2023-07-15T18:24:53.336Z,100650.56
2023-07-15T18:27:20.251Z,100653.22
2023-07-15T18:29:47.380Z,100653.97
2023-07-15T18:32:14.383Z,100649.41
2023-07-15T18:34:41.500Z,100658.16
2023-07-15T18:37:08.533Z,100670.97
2023-07-15T18:39:35.768Z,100661.34
2023-07-15T18:42:02.786Z,100660.56
2023-07-15T18:44:30.257Z,100670.38
2023-07-15T18:46:57.303Z,100673.34
2023-07-15T18:49:24.723Z,100671.06
2023-07-15T18:51:55.022Z,100682.81
2023-07-15T18:54:21.977Z,100694.59
2023-07-15T18:56:49.296Z,100696.03
2023-07-15T18:59:16.288Z,100690.72
2023-07-15T19:01:43.388Z,100687.25
2023-07-15T19:04:11.013Z,100691.38
2023-07-15T19:06:37.953Z,100703.88
2023-07-15T19:09:04.901Z,100691.31
2023-07-15T19:11:31.810Z,100681.09
2023-07-15T19:13:58.952Z,100690.97
2023-07-15T19:16:26.630Z,100684.47
2023-07-15T19:18:53.842Z,100687.47
2023-07-15T19:21:21.222Z,100686.66
2023-07-15T19:23:48.106Z,100692.19
2023-07-15T19:26:15.156Z,100696.69
2023-07-15T19:28:42.245Z,100689.38
2023-07-15T19:31:09.379Z,100694.63
2023-07-15T19:33:37.026Z,100693.44
2023-07-15T19:36:04.471Z,100702.84
2023-07-15T19:38:31.770Z,100699.78
2023-07-15T19:40:58.644Z,100698.63
2023-07-15T19:43:25.681Z,100707.66
2023-07-15T19:45:52.955Z,100707.97
2023-07-15T19:48:19.888Z,100710.56
2023-07-15T19:50:46.955Z,100716.59
2023-07-15T19:53:13.950Z,100716.91
2023-07-15T19:55:40.935Z,100712.25
2023-07-15T19:58:08.037Z,100705.41
2023-07-15T20:00:36.162Z,100708.38
2023-07-15T20:03:03.093Z,100712.16
2023-07-15T20:05:30.131Z,100711.63
2023-07-15T20:07:57.092Z,100718.34
2023-07-15T20:10:24.206Z,100731.22
2023-07-15T20:12:51.089Z,100721.63
2023-07-15T20:15:18.097Z,100727.31
2023-07-15T20:17:45.118Z,100733.69
2023-07-15T20:20:12.683Z,100732.81
2023-07-15T20:22:39.726Z,100735.41
2023-07-15T20:25:06.874Z,100744.44
2023-07-15T20:27:35.582Z,100755.72
2023-07-15T20:30:03.868Z,100756.72
2023-07-15T20:32:30.912Z,100762.72
2023-07-15T20:34:58.025Z,100772.91
2023-07-15T20:37:24.940Z,100778.19
2023-07-15T20:39:51.928Z,100778.53
2023-07-15T20:42:18.888Z,100783.00
2023-07-15T20:44:45.859Z,100786.69
2023-07-15T20:47:12.909Z,100793.38
2023-07-15T20:49:39.805Z,100792.19
2023-07-15T20:52:09.480Z,100788.38
2023-07-15T20:54:36.366Z,100790.94
2023-07-15T20:57:03.642Z,100790.19
2023-07-15T20:59:30.563Z,100796.53
2023-07-15T21:01:57.888Z,100803.97
2023-07-15T21:04:24.947Z,100808.13
2023-07-15T21:06:51.933Z,100799.75
2023-07-15T21:09:18.880Z,100803.47
2023-07-15T21:11:45.744Z,100804.84
2023-07-15T21:14:12.606Z,100810.41
2023-07-15T21:16:39.430Z,100814.09
2023-07-15T21:19:06.478Z,100821.63
2023-07-15T21:21:33.363Z,100820.44
2023-07-15T21:24:00.183Z,100818.41
2023-07-15T21:26:27.036Z,100817.91
2023-07-15T21:28:53.985Z,100825.34
2023-07-15T21:31:20.849Z,100833.22
2023-07-15T21:33:47.771Z,100822.88
2023-07-15T21:36:14.920Z,100825.28
2023-07-15T21:38:43.156Z,100826.97
2023-07-15T21:41:10.388Z,100832.97
2023-07-15T21:43:37.386Z,100827.50
2023-07-15T21:46:04.566Z,100820.47
2023-07-15T21:48:31.462Z,100832.50
2023-07-15T21:51:01.839Z,100834.97
2023-07-15T21:53:28.751Z,100836.41
2023-07-15T21:55:56.514Z,100848.38
2023-07-15T21:58:23.441Z,100859.28
2023-07-15T22:00:50.370Z,100855.44
2023-07-15T22:03:17.499Z,100867.81
2023-07-15T22:05:47.574Z,100869.59
2023-07-15T22:08:14.437Z,100868.63
2023-07-15T22:10:41.300Z,100872.97
2023-07-15T22:13:08.255Z,100875.16
2023-07-15T22:15:35.216Z,100875.75
2023-07-15T22:18:02.167Z,100873.34
2023-07-15T22:20:28.946Z,100863.00
2023-07-15T22:22:55.938Z,100876.88
2023-07-15T22:25:23.082Z,100868.09
2023-07-15T22:27:49.977Z,100868.22
2023-07-15T22:30:16.925Z,100862.94
2023-07-15T22:32:43.794Z,100866.59
2023-07-15T22:35:10.698Z,100864.16
2023-07-15T22:37:37.548Z,100866.66
2023-07-15T22:40:04.743Z,100865.16
2023-07-15T22:42:31.593Z,100860.94
2023-07-15T22:44:58.468Z,100866.22
2023-07-15T22:47:25.426Z,100858.97
2023-07-15T22:49:52.354Z,100868.31
2023-07-15T22:52:19.226Z,100876.50
2023-07-15T22:54:46.093Z,100880.91
2023-07-15T22:57:12.977Z,100873.97
2023-07-15T22:59:39.835Z,100870.78
2023-07-15T23:02:06.735Z,100866.47
2023-07-15T23:04:33.690Z,100881.44
2023-07-15T23:07:03.227Z,100879.03
2023-07-15T23:09:30.267Z,100880.69
2023-07-15T23:11:57.312Z,100881.25
2023-07-15T23:14:24.224Z,100882.31
2023-07-15T23:16:51.147Z,100889.50
2023-07-15T23:19:18.080Z,100889.38
2023-07-15T23:21:45.005Z,100881.31
2023-07-15T23:24:11.940Z,100882.75
2023-07-15T23:26:38.824Z,100885.63
2023-07-15T23:29:05.862Z,100889.03
2023-07-15T23:31:32.793Z,100892.75
2023-07-15T23:33:59.697Z,100885.19
2023-07-15T23:36:26.597Z,100894.19
2023-07-15T23:38:53.426Z,100878.69
2023-07-15T23:41:22.092Z,100882.63
2023-07-15T23:43:50.782Z,100891.97
2023-07-15T23:46:17.819Z,100898.34
2023-07-15T23:48:44.961Z,100887.03
2023-07-15T23:51:11.769Z,100887.03
2023-07-15T23:53:38.606Z,100876.00
2023-07-15T23:56:07.594Z,100885.81
2023-07-15T23:58:34.626Z,100889.34
